This is the latest recevied weather packets stored in our database for station/object KTPF. If no packets are shown the sender has not sent any weather packets the latest 10 day(s).
| Time | Temp. | Humidity | Pressure | Rain* | Wind** | Luminosity | Snow |
|---|---|---|---|---|---|---|---|
| 1777832624 | 25° C | 53% | 1017.3 hPa | - | - | - | - |
| 1777832025 | 25° C | 57% | 1017.3 hPa | - | - | - | - |
| 1777831423 | 25° C | 57% | 1017.3 hPa | - | - | - | - |
| 1777830825 | 25° C | 57% | 1017.6 hPa | - | - | - | - |
| 1777830221 | 25° C | 57% | 1017.6 hPa | - | - | - | - |
| 1777829623 | 23.89° C | 60% | 1017.6 hPa | - | - | - | - |
| 1777829021 | 23.89° C | 60% | 1017.6 hPa | - | - | - | - |
| 1777828421 | 23.89° C | 60% | 1017.9 hPa | - | - | - | - |
| 1777827823 | 23.89° C | 60% | 1017.9 hPa | - | - | - | - |
| 1777827227 | 22.78° C | 64% | 1018.3 hPa | - | - | - | - |
| 1777826624 | 22.78° C | 64% | 1018.3 hPa | - | - | - | - |
| 1777826028 | 21.67° C | 68% | 1018.3 hPa | - | - | - | - |
| 1777825427 | 21.67° C | 68% | 1018.3 hPa | - | - | - | - |
| 1777824826 | 21.67° C | 68% | 1018.3 hPa | - | - | - | - |
| 1777824229 | 21.67° C | 68% | 1018.3 hPa | - | - | - | - |
| 1777823627 | 21.67° C | 68% | 1017.9 hPa | - | - | - | - |
| 1777823027 | 21.67° C | 68% | 1017.9 hPa | - | - | - | - |
| 1777822427 | 20.56° C | 73% | 1017.9 hPa | - | - | - | - |
| 1777821828 | 20.56° C | 73% | 1017.9 hPa | - | - | - | - |
| 1777821226 | 20° C | 72% | 1018.3 hPa | - | - | - | - |
| 1777820626 | 20° C | 72% | 1018.3 hPa | - | - | - | - |
| 1777820027 | 20.56° C | 73% | 1018.3 hPa | - | - | - | - |
| 1777819428 | 20.56° C | 73% | 1018.3 hPa | - | - | - | - |
| 1777818825 | 18.89° C | 82% | 1017.9 hPa | - | - | - | - |
| 1777818223 | 18.89° C | 82% | 1017.9 hPa | - | - | - | - |
* Rain since midnight (hover to see other rain measurements)
** Current wind speed in m/s (hover to see current wind gust speed)